createdAt,value
2023-07-03T00:00:01.947Z,1000.125299053898
2023-07-03T00:15:01.555Z,999.9724592121279
2023-07-03T00:30:02.203Z,1000.0333409466866
2023-07-03T00:45:01.832Z,999.9919144470236
2023-07-03T01:00:01.460Z,1000.0919373422297
2023-07-03T01:15:02.044Z,1000.0526407855909
2023-07-03T01:30:01.773Z,999.9353098780058
2023-07-03T01:45:01.475Z,999.8597747712635
2023-07-03T02:00:02.065Z,999.7521772892007
2023-07-03T02:15:01.748Z,999.8479923387947
2023-07-03T02:30:01.457Z,999.851666468341
2023-07-03T02:45:02.088Z,999.6725539010172
2023-07-03T03:00:01.694Z,999.5269518606041
2023-07-03T03:15:01.361Z,999.2901994616034
2023-07-03T03:30:02.019Z,999.2167816778315
2023-07-03T03:45:01.622Z,999.6723719903788
2023-07-03T04:00:02.254Z,999.5163790474858
2023-07-03T04:15:01.889Z,999.433396691206
2023-07-03T04:30:01.501Z,999.6012546650916
2023-07-03T04:45:02.133Z,999.636194193681
2023-07-03T05:00:01.818Z,999.8000211519909
2023-07-03T05:15:01.465Z,999.8798367767413
2023-07-03T05:30:02.419Z,1000.0275187656437
2023-07-03T05:45:02.178Z,1000.0493649287498
2023-07-03T06:00:01.803Z,1000.2775175772456
2023-07-03T06:15:02.463Z,1000.3989128106851
2023-07-03T06:30:02.126Z,1000.4785630549179
2023-07-03T06:45:01.771Z,1000.6096913614069
2023-07-03T07:00:02.357Z,1000.5739212582808
2023-07-03T07:15:01.970Z,1000.5783745808646
2023-07-03T07:30:01.644Z,1000.6950777380558
2023-07-03T07:45:02.251Z,1000.4866753448707
2023-07-03T08:00:01.998Z,1000.7244705039196
2023-07-03T08:15:01.704Z,1000.8387769089568
2023-07-03T08:30:02.363Z,1000.9043871903992
2023-07-03T08:45:01.951Z,1001.0105457051479
2023-07-03T09:00:01.549Z,1000.9956774500662
2023-07-03T09:15:03.940Z,1001.041337285653
2023-07-03T09:30:02.399Z,1001.0424134299557
2023-07-03T09:45:02.080Z,1001.2968268963482
2023-07-03T10:00:01.696Z,1001.3796763765063
2023-07-03T10:15:02.340Z,1001.4074996279722
2023-07-03T10:30:02.007Z,1001.4182446530934
2023-07-03T10:45:01.639Z,1001.3629856959232
2023-07-03T11:00:02.221Z,1001.3461929029769
2023-07-03T11:15:01.869Z,1001.6052635747444
2023-07-03T11:30:01.567Z,1001.3728942080785
2023-07-03T11:45:02.243Z,1001.5009699425536
2023-07-03T12:00:01.872Z,1001.4493091296267
2023-07-03T12:15:01.633Z,1001.6436745367117
2023-07-03T12:30:02.301Z,1001.7571541019705
2023-07-03T12:45:01.958Z,1001.7787814841663
2023-07-03T13:00:01.551Z,1001.8883158887653
2023-07-03T13:15:02.241Z,1001.7292283132409
2023-07-03T13:30:01.933Z,1001.6012411748156
2023-07-03T13:45:01.668Z,1001.6152280356536
2023-07-03T14:00:01.284Z,1001.6660755549076
2023-07-03T14:15:01.908Z,1001.596852454373
2023-07-03T14:30:01.527Z,1001.7461275740848
2023-07-03T14:45:02.192Z,1001.5665925721155
2023-07-03T15:00:01.780Z,1001.5741221957302
2023-07-03T15:15:01.429Z,1001.5499398101322
2023-07-03T15:30:02.108Z,1001.5483819787778
2023-07-03T15:45:01.748Z,1001.5151572162081
2023-07-03T16:00:01.407Z,1001.6189551451914
2023-07-03T16:15:02.047Z,1001.5742664661088
2023-07-03T16:30:01.735Z,1001.591469291189
2023-07-03T16:45:01.461Z,1001.5806251454056
2023-07-03T17:00:02.199Z,1001.4861253775721
2023-07-03T17:15:01.881Z,1001.3593509348109
2023-07-03T17:30:01.570Z,1001.0770705273479
2023-07-03T17:45:01.306Z,1001.0609639736299
2023-07-03T18:00:01.963Z,1001.0491137201707
2023-07-03T18:15:01.616Z,1000.9441352696972
2023-07-03T18:30:01.247Z,1000.7594950278447
2023-07-03T18:45:01.902Z,1000.8579299230908
2023-07-03T19:00:01.514Z,1000.8367467029179
2023-07-03T19:15:01.153Z,1000.6621908305744
2023-07-03T19:30:01.807Z,1000.5949367439146
2023-07-03T19:45:01.430Z,1000.3519879986655
2023-07-03T20:00:02.073Z,1000.3448213972665
2023-07-03T20:15:01.734Z,1000.4002088288206
2023-07-03T20:30:01.397Z,1000.1277006109719
2023-07-03T20:45:01.042Z,1000.0865382442845
2023-07-03T21:00:01.663Z,1000.0191581130401
2023-07-03T21:15:01.925Z,1000.0089489981298
2023-07-03T21:30:01.888Z,999.9325527053168
2023-07-03T21:45:01.635Z,1000.083982753007
2023-07-03T22:00:02.288Z,1000.0491010241286
2023-07-03T22:15:01.981Z,999.9867695225018
2023-07-03T22:30:01.669Z,1000.7498633582534
2023-07-03T22:45:01.342Z,1000.8933560115104
2023-07-03T23:00:01.954Z,1000.8311435367608
2023-07-03T23:15:01.724Z,1001.0009170290352
2023-07-03T23:30:01.650Z,1001.2030381936185
2023-07-03T23:45:02.358Z,1001.4529034073089
